Time;durP1;ratioP1;P1;durP2;ratioP2;P2;SDS_P1;SDS_P2;PMS_P1;PMS_P2;Temp;Humidity;BMP_temperature;BMP_pressure;BME280_temperature;BME280_humidity;BME280_pressure;Samples;Min_cycle;Max_cycle;Signal;HPM_P1;HPM_P2
2021/08/11 00:04:53;;;;;;;17.38;13.23;;;;;;;14.62;87.23;101736.47;10461069;28;20049;-62
2021/08/11 00:09:55;;;;;;;18.88;14.52;;;;;;;14.58;87.30;101738.41;10460547;28;20552;-62
2021/08/11 00:14:57;;;;;;;17.90;15.45;;;;;;;14.34;88.29;101742.47;10460858;28;20059;-63
2021/08/11 00:20:00;;;;;;;23.92;16.75;;;;;;;14.43;87.68;101742.81;10459201;28;20044;-63
2021/08/11 00:25:03;;;;;;;24.35;16.58;;;;;;;14.27;87.87;101744.63;10459077;28;20567;-64
2021/08/11 00:30:06;;;;;;;30.02;17.23;;;;;;;14.24;88.10;101748.28;10460037;28;20045;-63
2021/08/11 00:35:09;;;;;;;15.27;12.55;;;;;;;14.49;87.22;101739.81;10459774;28;20481;-62
2021/08/11 00:40:14;;;;;;;25.77;16.50;;;;;;;14.25;88.28;101746.50;10458356;28;20382;-62
2021/08/11 00:45:16;;;;;;;23.33;16.13;;;;;;;14.22;88.24;101749.31;10458462;28;20060;-63
2021/08/11 00:50:19;;;;;;;21.02;16.27;;;;;;;14.25;87.99;101747.34;10457915;28;20083;-63
2021/08/11 00:55:23;;;;;;;27.17;16.35;;;;;;;14.44;88.26;101752.41;10459767;28;20045;-63
2021/08/11 01:00:25;;;;;;;24.67;16.88;;;;;;;14.36;89.00;101752.00;10441356;28;20045;-63
2021/08/11 01:05:28;;;;;;;26.02;16.92;;;;;;;14.40;88.05;101736.88;10457534;28;20057;-63
2021/08/11 01:10:30;;;;;;;23.17;16.30;;;;;;;14.41;87.89;101747.31;10458670;28;20525;-62
2021/08/11 01:15:33;;;;;;;26.33;18.42;;;;;;;14.09;88.14;101752.66;10458460;28;20060;-63
2021/08/11 01:20:36;;;;;;;21.17;15.93;;;;;;;14.43;87.52;101752.50;10458189;28;20053;-63
2021/08/11 01:25:45;;;;;;;30.60;19.88;;;;;;;14.18;87.96;101746.00;10457955;28;20049;-62
2021/08/11 01:30:54;;;;;;;26.13;17.25;;;;;;;14.31;87.58;101754.91;10456721;28;20045;-63
2021/08/11 01:36:16;;;;;;;34.20;24.98;;;;;;;14.39;88.26;101762.38;10457774;28;20088;-63
2021/08/11 01:41:20;;;;;;;32.88;22.23;;;;;;;14.45;88.33;101761.16;10457086;28;20485;-63
2021/08/11 01:46:23;;;;;;;53.33;28.05;;;;;;;14.18;89.04;101756.53;10456458;28;20068;-63
2021/08/11 01:51:25;;;;;;;47.10;26.80;;;;;;;14.01;89.32;101752.25;10455938;28;20127;-62
2021/08/11 01:56:28;;;;;;;35.38;22.30;;;;;;;14.22;87.85;101757.22;10439078;28;20041;-63
2021/08/11 02:01:30;;;;;;;35.35;23.95;;;;;;;14.15;88.00;101751.44;10455676;28;20056;-63
2021/08/11 02:06:34;;;;;;;38.67;25.60;;;;;;;14.11;88.36;101755.19;10456488;28;20515;-63
2021/08/11 02:11:40;;;;;;;28.80;21.63;;;;;;;13.89;88.87;101753.78;10455554;28;20380;-63
2021/08/11 02:16:43;;;;;;;30.02;22.10;;;;;;;13.77;88.32;101740.44;10455956;28;20131;-63
2021/08/11 02:21:45;;;;;;;36.22;20.85;;;;;;;13.65;88.91;101748.13;10456717;28;20052;-63
2021/08/11 02:27:00;;;;;;;38.17;23.70;;;;;;;13.64;88.25;101748.19;10455005;28;20053;-63
2021/08/11 02:32:24;;;;;;;30.08;19.67;;;;;;;13.61;88.63;101741.31;10454935;28;20057;-63
2021/08/11 02:37:51;;;;;;;29.23;20.10;;;;;;;13.74;87.60;101736.22;10455485;28;20052;-63
2021/08/11 02:43:23;;;;;;;34.70;22.90;;;;;;;13.48;88.37;101740.28;10454964;28;20056;-63
2021/08/11 02:48:27;;;;;;;37.83;21.95;;;;;;;13.36;88.52;101737.41;10454620;28;20401;-62
2021/08/11 02:53:34;;;;;;;31.67;21.50;;;;;;;13.28;88.20;101738.69;10455958;28;20489;-63
2021/08/11 02:58:36;;;;;;;33.15;21.23;;;;;;;13.31;87.68;101734.13;10463214;28;20045;-63
2021/08/11 03:03:39;;;;;;;31.45;19.80;;;;;;;13.21;87.75;101740.81;10463549;28;20485;-63
2021/08/11 03:08:42;;;;;;;26.45;17.90;;;;;;;13.14;88.46;101745.53;10462108;28;20048;-63
2021/08/11 03:13:45;;;;;;;30.20;18.85;;;;;;;13.13;88.28;101751.75;10462045;28;20065;-63
2021/08/11 03:18:51;;;;;;;31.67;18.10;;;;;;;13.21;87.78;101756.56;10461578;28;20049;-63
2021/08/11 03:23:54;;;;;;;39.83;21.02;;;;;;;13.04;88.90;101756.63;10462061;28;20076;-63
2021/08/11 03:29:00;;;;;;;36.00;20.30;;;;;;;13.09;88.57;101749.34;10462508;28;20049;-63
2021/08/11 03:34:02;;;;;;;33.33;20.73;;;;;;;12.87;89.43;101758.34;10463022;28;20052;-63
2021/08/11 03:39:05;;;;;;;25.00;17.65;;;;;;;12.94;88.06;101757.09;10462159;28;20044;-63
2021/08/11 03:44:07;;;;;;;28.92;17.85;;;;;;;12.92;88.41;101753.69;10462339;28;20056;-63
2021/08/11 03:49:10;;;;;;;26.40;17.77;;;;;;;12.93;88.35;101754.56;10461342;28;20493;-64
2021/08/11 03:54:12;;;;;;;20.40;15.40;;;;;;;12.88;88.43;101752.19;10461574;28;20056;-63
2021/08/11 03:59:14;;;;;;;26.90;18.98;;;;;;;12.72;88.89;101744.22;10461103;28;20416;-62
2021/08/11 04:04:16;;;;;;;23.30;16.35;;;;;;;12.73;88.90;101737.22;10459653;28;20052;-64
2021/08/11 04:09:19;;;;;;;22.92;16.20;;;;;;;12.58;89.17;101744.94;10461794;28;20087;-63
2021/08/11 04:14:21;;;;;;;21.98;15.30;;;;;;;12.68;88.78;101745.31;10460907;28;20052;-63
2021/08/11 04:19:24;;;;;;;26.15;14.73;;;;;;;12.62;88.44;101758.75;10460535;28;20053;-64
2021/08/11 04:24:27;;;;;;;23.98;17.48;;;;;;;12.57;89.66;101758.16;10459449;28;20413;-63
2021/08/11 04:29:29;;;;;;;24.75;17.63;;;;;;;12.62;88.94;101762.25;10460072;28;20053;-64
2021/08/11 04:34:31;;;;;;;17.27;13.50;;;;;;;12.87;87.64;101747.84;10459780;28;20041;-64
2021/08/11 04:39:34;;;;;;;25.77;17.25;;;;;;;12.73;88.51;101756.44;10441943;28;20045;-63
2021/08/11 04:44:36;;;;;;;20.73;15.43;;;;;;;12.97;87.28;101758.72;10460170;28;20049;-63
2021/08/11 04:49:39;;;;;;;26.52;18.13;;;;;;;12.85;88.66;101770.72;10458187;28;20056;-63
2021/08/11 04:54:41;;;;;;;26.58;16.55;;;;;;;13.05;87.88;101768.84;10458035;28;20045;-63
2021/08/11 04:59:43;;;;;;;31.23;20.10;;;;;;;13.00;88.37;101766.47;10457747;28;20051;-63
2021/08/11 05:04:46;;;;;;;24.60;16.75;;;;;;;13.08;88.14;101779.19;10458937;28;20420;-63
2021/08/11 05:09:48;;;;;;;25.33;17.25;;;;;;;13.22;87.82;101783.75;10457600;28;20053;-63
2021/08/11 05:14:52;;;;;;;25.75;17.17;;;;;;;13.01;88.65;101787.41;10458140;28;20081;-64
2021/08/11 05:19:55;;;;;;;25.65;17.42;;;;;;;13.16;88.17;101783.13;10456314;28;20045;-63
2021/08/11 05:24:57;;;;;;;16.77;14.32;;;;;;;13.23;87.17;101788.06;10440945;28;20052;-64
2021/08/11 05:30:00;;;;;;;22.08;16.63;;;;;;;13.22;88.72;101789.00;10440045;28;20045;-65
2021/08/11 05:35:04;;;;;;;20.35;15.77;;;;;;;13.26;87.53;101786.09;10456828;28;20056;-65
2021/08/11 05:40:10;;;;;;;27.70;16.90;;;;;;;13.61;87.77;101799.19;10456699;28;20128;-64
2021/08/11 05:45:12;;;;;;;21.85;15.15;;;;;;;13.84;86.52;101797.94;10456265;28;20053;-65
2021/08/11 05:50:14;;;;;;;24.58;16.70;;;;;;;13.89;87.40;101808.22;10457436;28;20052;-64
2021/08/11 05:55:17;;;;;;;41.20;23.25;;;;;;;13.99;87.25;101805.94;10457615;28;20135;-64
2021/08/11 06:00:19;;;;;;;37.10;23.58;;;;;;;14.13;88.37;101811.25;10456767;28;20063;-64
2021/08/11 06:05:22;;;;;;;37.90;21.58;;;;;;;14.39;88.36;101817.69;10455547;28;20516;-65
2021/08/11 06:10:24;;;;;;;26.05;16.45;;;;;;;14.81;87.67;101816.16;10455531;28;20084;-65
2021/08/11 06:15:27;;;;;;;21.20;14.60;;;;;;;15.10;86.54;101818.00;10456194;28;20053;-64
2021/08/11 06:20:29;;;;;;;30.45;17.83;;;;;;;15.20;87.56;101822.63;10455220;28;20060;-65
2021/08/11 06:25:31;;;;;;;27.75;16.40;;;;;;;15.48;85.37;101828.00;10456447;28;20049;-64
2021/08/11 06:30:34;;;;;;;21.60;14.43;;;;;;;16.07;84.35;101841.91;10462880;28;20405;-64
2021/08/11 06:35:36;;;;;;;14.70;11.27;;;;;;;16.15;82.54;101836.13;10446907;28;20485;-64
2021/08/11 06:40:39;;;;;;;16.85;11.05;;;;;;;16.02;83.76;101827.28;10463359;28;20041;-65
2021/08/11 06:45:41;;;;;;;15.90;9.70;;;;;;;16.21;83.36;101833.09;10463323;28;20053;-65
2021/08/11 06:50:44;;;;;;;9.70;7.30;;;;;;;15.91;82.20;101849.94;10462941;28;20056;-66
2021/08/11 06:55:46;;;;;;;9.50;7.00;;;;;;;16.58;80.38;101854.47;10463810;28;20048;-64
2021/08/11 07:00:48;;;;;;;11.38;8.50;;;;;;;16.47;80.55;101854.31;10464298;28;20049;-65
2021/08/11 07:05:51;;;;;;;11.23;7.97;;;;;;;16.40;80.37;101861.81;10462248;28;20551;-65
2021/08/11 07:10:53;;;;;;;10.07;7.88;;;;;;;17.11;79.06;101866.88;10463782;28;20057;-66
2021/08/11 07:15:56;;;;;;;10.82;7.75;;;;;;;17.04;79.57;101862.00;10462137;28;20045;-65
2021/08/11 07:20:58;;;;;;;14.30;7.82;;;;;;;17.24;79.92;101868.56;10462002;28;20051;-65
2021/08/11 07:26:01;;;;;;;19.85;10.48;;;;;;;17.69;76.67;101854.06;10463291;28;20516;-65
2021/08/11 07:31:04;;;;;;;15.27;8.93;;;;;;;18.06;75.33;101860.22;10462249;28;20056;-64
2021/08/11 07:36:06;;;;;;;10.73;9.07;;;;;;;18.71;74.06;101861.63;10461115;28;20053;-64
2021/08/11 07:41:08;;;;;;;14.77;7.53;;;;;;;19.40;73.32;101855.53;10461368;28;20044;-65
2021/08/11 07:46:11;;;;;;;11.77;7.20;;;;;;;19.29;74.60;101845.72;10477037;28;20485;-64
2021/08/11 07:51:13;;;;;;;11.68;6.80;;;;;;;19.29;71.63;101859.00;10461717;28;20469;-66
2021/08/11 07:56:16;;;;;;;9.13;6.60;;;;;;;19.97;71.02;101863.47;10461253;28;20433;-64
2021/08/11 08:01:18;;;;;;;8.77;6.78;;;;;;;19.95;68.73;101863.59;10461283;28;20511;-64
2021/08/11 08:06:21;;;;;;;12.40;8.52;;;;;;;20.03;67.18;101863.84;10461108;28;20482;-66
2021/08/11 08:11:23;;;;;;;8.55;7.15;;;;;;;20.60;66.30;101868.97;10461076;28;20424;-64
2021/08/11 08:16:26;;;;;;;14.48;7.47;;;;;;;21.10;65.16;101863.06;10460365;28;20446;-65
2021/08/11 08:21:28;;;;;;;13.90;10.48;;;;;;;21.08;64.76;101857.88;10443089;28;20049;-63
2021/08/11 08:26:30;;;;;;;12.98;8.30;;;;;;;21.92;63.08;101856.00;10460443;28;20049;-64
2021/08/11 08:31:33;;;;;;;16.00;10.02;;;;;;;21.74;62.53;101853.13;10460292;28;20049;-64
2021/08/11 08:36:35;;;;;;;11.23;8.05;;;;;;;21.92;65.86;101864.81;10460048;28;20052;-63
2021/08/11 08:41:39;;;;;;;11.73;9.68;;;;;;;22.24;62.90;101869.09;10459829;28;20049;-64
2021/08/11 08:46:43;;;;;;;15.60;8.90;;;;;;;22.74;61.52;101869.00;10458694;28;20044;-63
2021/08/11 08:51:53;;;;;;;12.95;10.82;;;;;;;21.13;65.92;101866.31;10458568;28;20045;-63
2021/08/11 08:56:55;;;;;;;11.23;7.63;;;;;;;21.78;66.84;101855.41;10458119;28;20128;-63
2021/08/11 09:01:58;;;;;;;11.48;8.85;;;;;;;21.61;66.74;101867.53;10459149;28;20067;-63
2021/08/11 09:07:00;;;;;;;11.27;8.27;;;;;;;21.70;65.96;101853.44;10458516;28;20410;-63
2021/08/11 09:12:19;;;;;;;11.35;8.05;;;;;;;21.99;66.83;101865.97;10458673;28;20404;-63
2021/08/11 09:17:35;;;;;;;14.32;9.63;;;;;;;21.83;66.74;101861.16;10458333;28;20477;-63
2021/08/11 09:22:46;;;;;;;14.77;9.18;;;;;;;21.85;67.02;101867.19;10458234;28;20052;-63
2021/08/11 09:27:49;;;;;;;14.57;11.15;;;;;;;21.93;66.95;101879.03;10458295;28;20149;-64
2021/08/11 09:33:00;;;;;;;11.98;9.10;;;;;;;21.99;67.86;101871.31;10440250;28;20049;-63
2021/08/11 09:38:11;;;;;;;13.77;11.30;;;;;;;21.13;68.78;101874.31;10457535;28;20481;-63
2021/08/11 09:43:16;;;;;;;13.15;11.50;;;;;;;22.94;63.56;101866.31;10457861;28;20049;-63
2021/08/11 09:48:21;;;;;;;17.58;13.10;;;;;;;23.19;63.17;101863.03;10439525;28;20053;-63
2021/08/11 09:53:25;;;;;;;14.35;12.88;;;;;;;22.73;63.29;101861.13;10455801;28;20493;-64
2021/08/11 09:58:32;;;;;;;15.43;12.70;;;;;;;24.83;59.28;101864.03;10456738;28;20053;-64
2021/08/11 10:03:35;;;;;;;15.18;12.63;;;;;;;22.85;62.07;101853.81;10456228;28;20063;-63
2021/08/11 10:08:38;;;;;;;15.43;13.82;;;;;;;24.02;61.53;101856.91;10455392;28;20106;-64
2021/08/11 10:13:41;;;;;;;11.77;10.63;;;;;;;24.23;60.00;101870.00;10455271;28;20059;-64
2021/08/11 10:18:44;;;;;;;14.85;11.60;;;;;;;23.28;62.76;101880.03;10456419;28;20045;-64
2021/08/11 10:23:47;;;;;;;10.63;8.15;;;;;;;25.99;56.92;101880.75;10456279;28;20572;-65
2021/08/11 10:28:50;;;;;;;8.57;7.68;;;;;;;26.29;51.32;101884.69;10455073;28;20045;-64
2021/08/11 10:33:53;;;;;;;6.07;5.30;;;;;;;27.63;52.78;101888.78;10456745;28;20053;-65
2021/08/11 10:38:58;;;;;;;9.35;5.60;;;;;;;26.08;54.44;101888.66;10455217;28;20041;-64
2021/08/11 10:44:03;;;;;;;5.57;4.97;;;;;;;24.93;54.02;101884.53;10454857;28;20048;-64
2021/08/11 10:49:07;;;;;;;7.85;6.53;;;;;;;23.93;59.89;101885.41;10455237;28;20061;-64
2021/08/11 10:54:11;;;;;;;10.43;6.85;;;;;;;22.97;61.02;101877.53;10454392;28;20048;-64
2021/08/11 10:59:22;;;;;;;5.88;5.32;;;;;;;24.35;60.04;101884.00;10454590;28;20053;-64
2021/08/11 11:04:39;;;;;;;4.10;3.70;;;;;;;24.30;55.77;101878.28;10455497;28;20430;-65
2021/08/11 11:09:45;;;;;;;5.20;2.30;;;;;;;26.36;53.56;101869.59;10455341;28;20052;-65
2021/08/11 11:14:50;;;;;;;4.07;3.25;;;;;;;25.39;51.33;101879.84;10456833;28;20053;-64
2021/08/11 11:20:08;;;;;;;2.85;2.65;;;;;;;28.48;49.38;101868.25;10461942;28;20045;-64
2021/08/11 11:25:15;;;;;;;3.25;2.95;;;;;;;28.07;46.90;101865.88;10463534;28;20055;-64
2021/08/11 11:30:26;;;;;;;3.63;2.50;;;;;;;28.27;46.34;101863.53;10462507;28;20053;-64
2021/08/11 11:35:30;;;;;;;2.83;2.63;;;;;;;28.87;45.48;101862.72;10462161;28;20507;-64
2021/08/11 11:40:32;;;;;;;5.40;3.33;;;;;;;28.22;45.87;101861.38;10462834;28;20048;-64
2021/08/11 11:45:45;;;;;;;4.72;4.18;;;;;;;27.06;44.99;101852.94;10444708;28;20057;-64
2021/08/11 11:50:52;;;;;;;2.70;2.50;;;;;;;28.92;43.12;101864.88;10461823;28;20061;-65
2021/08/11 11:55:54;;;;;;;5.00;2.83;;;;;;;30.10;41.40;101860.41;10462403;28;20045;-65
2021/08/11 12:01:03;;;;;;;3.35;3.05;;;;;;;29.38;44.66;101871.97;10461371;28;20523;-64
2021/08/11 12:06:07;;;;;;;5.50;4.75;;;;;;;26.77;46.56;101880.38;10461211;28;20524;-64
2021/08/11 12:11:14;;;;;;;4.72;4.10;;;;;;;29.89;41.02;101874.75;10460947;28;20068;-64
2021/08/11 12:16:19;;;;;;;5.90;4.93;;;;;;;28.12;44.07;101874.25;10460722;28;20131;-65
2021/08/11 12:21:22;;;;;;;6.00;4.82;;;;;;;28.72;46.13;101868.09;10459089;28;20041;-64
2021/08/11 12:26:30;;;;;;;7.18;4.53;;;;;;;29.38;39.65;101866.59;10459581;28;20064;-65
2021/08/11 12:31:33;;;;;;;5.05;4.63;;;;;;;30.43;41.76;101857.22;10460187;28;20045;-65
2021/08/11 12:36:38;;;;;;;4.97;4.22;;;;;;;27.49;44.50;101870.66;10459858;28;20497;-65
2021/08/11 12:41:42;;;;;;;4.45;4.05;;;;;;;30.68;36.92;101870.31;10459649;28;20045;-65
2021/08/11 12:46:44;;;;;;;6.60;3.70;;;;;;;30.83;34.08;101862.94;10458578;28;20059;-65
2021/08/11 12:52:16;;;;;;;3.40;3.10;;;;;;;29.48;39.46;101858.22;10459577;28;20044;-65
2021/08/11 12:57:24;;;;;;;6.50;3.78;;;;;;;30.05;40.75;101848.53;10459157;28;20093;-65
2021/08/11 13:02:28;;;;;;;6.55;3.63;;;;;;;30.70;40.60;101852.06;10458010;28;20060;-64
2021/08/11 13:07:30;;;;;;;3.92;3.63;;;;;;;29.68;41.21;101851.19;10458042;28;20049;-65
2021/08/11 13:12:33;;;;;;;4.72;2.90;;;;;;;30.90;37.09;101839.50;10458668;28;20048;-65
2021/08/11 13:17:49;;;;;;;4.60;3.40;;;;;;;30.65;37.01;101841.81;10458302;28;20045;-66
2021/08/11 13:22:56;;;;;;;4.45;3.67;;;;;;;28.86;36.99;101844.03;10458412;28;20049;-65
2021/08/11 13:28:02;;;;;;;3.10;2.85;;;;;;;28.33;40.51;101834.03;10458487;28;20059;-65
2021/08/11 13:33:05;;;;;;;4.20;3.65;;;;;;;29.72;35.75;101833.59;10456688;28;20493;-65
2021/08/11 13:38:09;;;;;;;3.75;3.45;;;;;;;30.01;32.50;101832.72;10456682;28;20401;-65
2021/08/11 13:43:11;;;;;;;3.42;3.13;;;;;;;30.41;31.95;101829.56;10456615;28;20048;-64
2021/08/11 13:48:13;;;;;;;2.85;2.47;;;;;;;29.55;38.72;101840.25;10457171;28;20052;-65
2021/08/11 13:53:15;;;;;;;2.92;2.63;;;;;;;31.30;34.41;101823.53;10457435;28;20049;-65
2021/08/11 13:58:18;;;;;;;6.80;3.47;;;;;;;31.05;34.33;101817.78;10456919;28;20052;-65
2021/08/11 14:03:20;;;;;;;3.72;2.38;;;;;;;31.22;35.81;101815.59;10456341;28;20052;-65
2021/08/11 14:08:23;;;;;;;2.78;2.55;;;;;;;29.32;33.01;101819.63;10455320;28;20475;-65
2021/08/11 14:13:25;;;;;;;3.15;2.85;;;;;;;31.35;31.12;101811.25;10456709;28;20493;-65
2021/08/11 14:18:27;;;;;;;3.45;3.00;;;;;;;29.97;33.42;101812.50;10455091;28;20045;-64
2021/08/11 14:23:30;;;;;;;3.08;2.40;;;;;;;30.46;35.43;101805.47;10456463;28;20516;-65
2021/08/11 14:28:32;;;;;;;2.92;2.72;;;;;;;30.32;31.78;101803.69;10456710;28;20057;-64
2021/08/11 14:33:34;;;;;;;2.75;2.55;;;;;;;31.35;34.35;101800.44;10456243;28;20055;-65
2021/08/11 14:38:37;;;;;;;3.40;3.00;;;;;;;30.54;32.40;101797.25;10455930;28;20052;-64
2021/08/11 14:43:39;;;;;;;4.97;3.10;;;;;;;30.03;30.81;101800.13;10455923;28;20401;-65
2021/08/11 14:48:42;;;;;;;2.75;2.17;;;;;;;30.01;32.22;101812.97;10457086;28;20053;-64
2021/08/11 14:53:44;;;;;;;3.53;3.10;;;;;;;30.07;33.84;101814.06;10464208;28;20080;-65
2021/08/11 14:58:46;;;;;;;3.63;2.83;;;;;;;28.30;37.90;101804.78;10463763;28;20049;-65
2021/08/11 15:03:48;;;;;;;3.85;2.85;;;;;;;29.50;32.69;101799.50;10463418;28;20048;-65
2021/08/11 15:08:51;;;;;;;4.88;2.45;;;;;;;29.70;33.01;101792.47;10463552;28;20056;-64
2021/08/11 15:13:53;;;;;;;4.45;3.55;;;;;;;30.36;34.76;101803.16;10464172;28;20060;-64
2021/08/11 15:18:56;;;;;;;5.32;3.33;;;;;;;26.97;39.84;101804.78;10461761;28;20061;-65
2021/08/11 15:23:59;;;;;;;4.25;2.90;;;;;;;28.79;37.02;101798.13;10463297;28;20045;-65
2021/08/11 15:29:01;;;;;;;4.43;3.38;;;;;;;30.53;36.08;101790.19;10462834;28;20052;-65
2021/08/11 15:34:03;;;;;;;3.80;2.95;;;;;;;28.88;40.35;101798.88;10462478;28;20055;-64
2021/08/11 15:39:07;;;;;;;3.78;2.50;;;;;;;28.58;37.68;101787.22;10461905;28;20057;-64
2021/08/11 15:44:10;;;;;;;2.75;2.47;;;;;;;27.72;37.62;101784.66;10462114;28;20417;-64
2021/08/11 15:49:12;;;;;;;3.25;2.80;;;;;;;26.31;39.67;101792.25;10462274;28;20048;-64
2021/08/11 15:54:14;;;;;;;2.85;2.63;;;;;;;26.77;40.56;101783.66;10461713;28;20493;-64
2021/08/11 15:59:17;;;;;;;3.28;2.53;;;;;;;26.55;40.16;101793.25;10461366;28;20045;-64
2021/08/11 16:04:19;;;;;;;3.97;2.75;;;;;;;25.95;40.38;101792.53;10461097;28;20480;-64
2021/08/11 16:09:22;;;;;;;2.78;2.58;;;;;;;25.56;42.85;101784.22;10461135;28;20527;-64
2021/08/11 16:14:25;;;;;;;3.45;2.63;;;;;;;26.14;39.73;101793.22;10459486;28;20417;-64
2021/08/11 16:19:27;;;;;;;3.13;2.70;;;;;;;26.11;40.93;101796.28;10460558;28;20412;-64
2021/08/11 16:24:29;;;;;;;3.80;2.83;;;;;;;24.91;42.56;101792.78;10460462;28;20045;-64
2021/08/11 16:29:32;;;;;;;2.55;2.15;;;;;;;24.88;44.44;101796.63;10460533;28;20055;-64
2021/08/11 16:34:35;;;;;;;2.72;2.40;;;;;;;25.32;40.58;101798.41;10460277;28;20056;-64
2021/08/11 16:39:37;;;;;;;2.42;2.22;;;;;;;24.48;47.70;101798.81;10459880;28;20536;-64
2021/08/11 16:44:39;;;;;;;3.35;2.58;;;;;;;24.41;46.14;101799.56;10459771;28;20053;-64
2021/08/11 16:49:42;;;;;;;3.50;2.92;;;;;;;23.80;47.02;101796.63;10459750;28;20056;-64
2021/08/11 16:54:46;;;;;;;3.70;2.60;;;;;;;23.94;46.32;101803.34;10459288;28;20045;-64
2021/08/11 16:59:50;;;;;;;1.95;1.60;;;;;;;23.85;49.95;101793.56;10459316;28;20059;-63
2021/08/11 17:04:52;;;;;;;4.80;2.42;;;;;;;23.92;45.96;101794.63;10458044;28;20053;-64
2021/08/11 17:09:55;;;;;;;3.00;2.45;;;;;;;23.20;52.19;101789.09;10458832;28;20041;-64
2021/08/11 17:14:59;;;;;;;2.47;2.28;;;;;;;22.81;53.10;101797.19;10456288;28;20049;-63
2021/08/11 17:20:07;;;;;;;2.67;2.28;;;;;;;22.78;54.60;101801.00;10458689;28;20128;-63
2021/08/11 17:25:10;;;;;;;2.63;2.30;;;;;;;22.74;56.18;101804.09;10456925;28;20519;-64
2021/08/11 17:30:13;;;;;;;5.70;2.20;;;;;;;22.44;56.18;101805.94;10458317;28;20049;-64
2021/08/11 17:35:15;;;;;;;4.70;3.25;;;;;;;21.94;59.67;101801.56;10457797;28;20052;-63
2021/08/11 17:40:18;;;;;;;5.90;2.63;;;;;;;21.93;58.92;101786.53;10457557;28;20327;-63
2021/08/11 17:45:20;;;;;;;3.88;2.40;;;;;;;21.80;60.92;101791.28;10457522;28;20071;-63
2021/08/11 17:50:22;;;;;;;4.47;2.45;;;;;;;21.36;62.29;101798.72;10456211;28;20045;-63
2021/08/11 17:55:25;;;;;;;3.20;2.08;;;;;;;21.06;64.09;101793.25;10457047;28;20497;-63
2021/08/11 18:00:28;;;;;;;7.65;2.47;;;;;;;21.31;63.08;101791.13;10456911;28;20169;-63
2021/08/11 18:05:32;;;;;;;5.85;2.58;;;;;;;20.84;65.27;101793.41;10457340;28;20052;-63
2021/08/11 18:10:35;;;;;;;7.20;2.95;;;;;;;20.51;67.53;101795.25;10456621;28;20048;-64
2021/08/11 18:15:38;;;;;;;4.88;2.75;;;;;;;20.20;67.88;101793.34;10455135;28;20056;-64
2021/08/11 18:20:40;;;;;;;3.13;2.05;;;;;;;20.04;68.85;101800.91;10455258;28;20049;-64
2021/08/11 18:25:42;;;;;;;2.75;2.25;;;;;;;19.98;68.96;101802.22;10456491;28;20063;-64
2021/08/11 18:30:45;;;;;;;4.50;2.42;;;;;;;19.72;70.51;101806.13;10455057;28;20523;-64
2021/08/11 18:35:47;;;;;;;4.82;2.67;;;;;;;19.44;70.51;101803.84;10456172;28;20060;-64
2021/08/11 18:40:49;;;;;;;5.18;2.63;;;;;;;19.42;71.02;101811.09;10455459;28;20123;-64
2021/08/11 18:45:52;;;;;;;7.72;3.15;;;;;;;19.11;72.05;101816.19;10456068;28;20409;-64
2021/08/11 18:50:55;;;;;;;4.40;3.00;;;;;;;18.89;72.34;101818.78;10455929;28;20382;-63
2021/08/11 18:55:57;;;;;;;4.93;2.78;;;;;;;18.57;73.14;101830.00;10454512;28;20412;-63
2021/08/11 19:01:02;;;;;;;2.90;2.60;;;;;;;18.63;71.71;101820.75;10456079;28;20108;-63
2021/08/11 19:06:06;;;;;;;3.47;2.53;;;;;;;18.44;73.28;101830.06;10456029;28;20056;-64
2021/08/11 19:11:08;;;;;;;12.35;3.25;;;;;;;18.25;74.11;101830.56;10453896;28;20417;-62
2021/08/11 19:16:10;;;;;;;3.35;2.85;;;;;;;18.27;72.31;101831.31;10455651;28;20053;-63
2021/08/11 19:21:13;;;;;;;6.15;3.45;;;;;;;17.89;73.88;101842.06;10455392;28;20049;-63
2021/08/11 19:26:15;;;;;;;5.15;3.33;;;;;;;17.82;74.81;101838.97;10455348;28;20065;-62
2021/08/11 19:31:18;;;;;;;6.03;2.85;;;;;;;17.79;74.16;101836.53;10455144;28;20488;-62
2021/08/11 19:36:21;;;;;;;5.18;3.00;;;;;;;17.76;73.47;101836.75;10457745;28;20133;-63
2021/08/11 19:41:23;;;;;;;3.63;3.00;;;;;;;17.54;74.58;101840.09;10462229;28;20056;-62
2021/08/11 19:46:25;;;;;;;3.78;2.90;;;;;;;17.44;75.10;101843.38;10461125;28;20061;-63
2021/08/11 19:51:29;;;;;;;5.90;3.20;;;;;;;17.38;75.30;101857.06;10461915;28;20055;-63
2021/08/11 19:56:32;;;;;;;3.70;2.92;;;;;;;17.23;75.75;101866.03;10461810;28;20128;-63
2021/08/11 20:01:34;;;;;;;4.78;3.40;;;;;;;17.06;75.57;101875.97;10461707;28;20056;-63
2021/08/11 20:06:37;;;;;;;4.90;3.33;;;;;;;16.88;76.54;101878.06;10461448;28;20079;-62
2021/08/11 20:11:40;;;;;;;3.88;3.47;;;;;;;17.02;75.39;101874.47;10460538;28;20048;-62
2021/08/11 20:16:43;;;;;;;5.28;3.97;;;;;;;16.79;77.13;101886.56;10459792;28;20124;-62
2021/08/11 20:21:46;;;;;;;6.05;4.07;;;;;;;16.63;76.65;101880.63;10460957;28;20076;-62
2021/08/11 20:26:49;;;;;;;6.93;3.80;;;;;;;16.84;76.43;101881.84;10460721;28;20080;-62
2021/08/11 20:31:51;;;;;;;4.35;3.63;;;;;;;16.77;76.31;101879.69;10460232;28;20497;-62
2021/08/11 20:36:53;;;;;;;6.72;3.30;;;;;;;16.61;76.80;101878.06;10459997;28;20068;-62
2021/08/11 20:41:55;;;;;;;5.88;3.67;;;;;;;16.51;77.26;101884.91;10460418;28;20049;-63
2021/08/11 20:46:58;;;;;;;6.90;3.60;;;;;;;16.41;77.63;101900.50;10459702;28;20048;-62
2021/08/11 20:52:00;;;;;;;5.72;3.20;;;;;;;16.37;77.90;101896.34;10459562;28;20041;-62
2021/08/11 20:57:03;;;;;;;3.67;3.33;;;;;;;16.27;78.30;101900.53;10458953;28;20053;-62
2021/08/11 21:02:05;;;;;;;7.20;4.25;;;;;;;16.37;77.84;101896.34;10459079;28;20486;-62
2021/08/11 21:07:08;;;;;;;5.85;3.90;;;;;;;16.26;77.97;101897.06;10458777;28;20493;-62
2021/08/11 21:12:10;;;;;;;6.13;3.83;;;;;;;16.25;77.69;101907.72;10459196;28;20051;-62
2021/08/11 21:17:12;;;;;;;7.07;4.25;;;;;;;16.12;78.21;101899.72;10458499;28;20044;-62
2021/08/11 21:22:14;;;;;;;5.80;3.40;;;;;;;16.15;78.16;101904.81;10458478;28;20432;-62
2021/08/11 21:27:17;;;;;;;4.32;3.65;;;;;;;16.10;78.67;101896.34;10458043;28;20405;-62
2021/08/11 21:32:19;;;;;;;5.55;3.90;;;;;;;15.91;79.43;101907.22;10458069;28;20048;-62
2021/08/11 21:37:22;;;;;;;5.80;3.80;;;;;;;15.94;78.66;101899.94;10457830;28;20041;-62
2021/08/11 21:42:24;;;;;;;5.85;3.92;;;;;;;15.92;79.31;101896.56;10457648;28;20405;-62
2021/08/11 21:47:26;;;;;;;5.32;4.25;;;;;;;15.83;79.59;101899.75;10457425;28;20052;-62
2021/08/11 21:52:29;;;;;;;4.65;3.85;;;;;;;15.83;79.43;101897.13;10457286;28;20048;-62
2021/08/11 21:57:31;;;;;;;4.53;3.70;;;;;;;15.85;78.93;101895.22;10456503;28;20451;-62
2021/08/11 22:02:33;;;;;;;5.38;3.83;;;;;;;15.74;79.67;101905.59;10456923;28;20064;-62
2021/08/11 22:07:36;;;;;;;4.95;3.97;;;;;;;15.67;79.85;101891.91;10456796;28;20094;-62
2021/08/11 22:12:38;;;;;;;4.97;3.45;;;;;;;15.50;80.14;101892.94;10456059;28;20118;-62
2021/08/11 22:17:41;;;;;;;7.60;4.07;;;;;;;15.58;80.04;101890.69;10456645;28;20041;-62
2021/08/11 22:22:44;;;;;;;6.22;3.95;;;;;;;15.37;80.83;101884.91;10456867;28;20045;-62
2021/08/11 22:27:46;;;;;;;4.47;3.97;;;;;;;15.40;80.84;101882.09;10455722;28;20049;-62
2021/08/11 22:32:49;;;;;;;5.32;3.90;;;;;;;15.36;80.51;101893.75;10456402;28;20045;-63
2021/08/11 22:37:52;;;;;;;5.03;4.53;;;;;;;15.38;80.79;101891.03;10456177;28;20129;-62
2021/08/11 22:42:54;;;;;;;6.85;4.65;;;;;;;15.49;80.48;101887.78;10456143;28;20099;-62
2021/08/11 22:47:56;;;;;;;5.20;4.40;;;;;;;15.17;81.21;101890.56;10456566;28;20067;-62
2021/08/11 22:52:59;;;;;;;8.23;4.55;;;;;;;15.20;80.99;101890.38;10456325;28;20045;-62
2021/08/11 22:58:02;;;;;;;7.65;4.68;;;;;;;15.19;81.11;101886.03;10455767;28;20049;-62
2021/08/11 23:03:05;;;;;;;6.22;4.10;;;;;;;15.10;81.24;101891.88;10454656;28;20059;-62
2021/08/11 23:08:08;;;;;;;5.43;4.22;;;;;;;15.07;81.42;101887.59;10455530;28;20453;-62